Time;durP1;ratioP1;P1;durP2;ratioP2;P2;SDS_P1;SDS_P2;PMS_P1;PMS_P2;Temp;Humidity;BMP_temperature;BMP_pressure;BME280_temperature;BME280_humidity;BME280_pressure;Samples;Min_cycle;Max_cycle;Signal;HPM_P1;HPM_P2
2023/10/27 00:02:09;;;;;;;13.77;12.97;;;10.50;99.90;;;;;;4899126;29;20217;-78
2023/10/27 00:04:35;;;;;;;14.20;13.00;;;10.50;99.90;;;;;;4906899;29;20339;-79
2023/10/27 00:07:02;;;;;;;13.37;12.57;;;10.50;99.90;;;;;;4905218;29;20694;-77
2023/10/27 00:09:31;;;;;;;14.40;13.40;;;10.50;99.90;;;;;;4878411;29;20230;-79
2023/10/27 00:11:58;;;;;;;14.20;13.20;;;10.50;99.90;;;;;;4890703;29;20207;-78
2023/10/27 00:14:25;;;;;;;14.00;13.20;;;10.50;99.90;;;;;;4891201;29;20582;-78
2023/10/27 00:16:54;;;;;;;14.43;13.40;;;10.50;99.90;;;;;;4900509;29;20220;-79
2023/10/27 00:19:21;;;;;;;14.00;13.20;;;10.40;99.90;;;;;;4905352;29;20247;-78
2023/10/27 00:21:47;;;;;;;14.30;13.30;;;10.40;99.90;;;;;;4885887;29;20201;-79
2023/10/27 00:24:14;;;;;;;14.30;13.30;;;10.40;99.90;;;;;;4889935;29;20197;-79
2023/10/27 00:26:41;;;;;;;13.73;12.93;;;10.40;99.90;;;;;;4893498;29;20201;-78
2023/10/27 00:29:08;;;;;;;14.53;13.53;;;10.40;99.90;;;;;;4893499;29;20288;-78
2023/10/27 00:31:35;;;;;;;14.50;13.50;;;10.40;99.90;;;;;;4891359;29;20205;-79
2023/10/27 00:34:03;;;;;;;14.40;13.50;;;10.40;99.90;;;;;;4906197;29;20263;-79
2023/10/27 00:36:30;;;;;;;14.63;13.73;;;10.40;99.90;;;;;;4882102;29;20212;-78
2023/10/27 00:38:57;;;;;;;14.30;13.40;;;10.30;99.90;;;;;;4905645;29;20249;-78
2023/10/27 00:41:24;;;;;;;14.80;13.70;;;10.40;99.90;;;;;;4907427;29;20670;-78
2023/10/27 00:43:50;;;;;;;13.93;13.03;;;10.40;99.90;;;;;;4901752;29;20227;-78
2023/10/27 00:46:17;;;;;;;13.60;12.80;;;10.30;99.90;;;;;;4895180;29;20252;-78
2023/10/27 00:48:44;;;;;;;14.13;13.10;;;10.30;99.90;;;;;;4901297;29;20665;-78
2023/10/27 00:51:13;;;;;;;14.10;13.20;;;10.30;99.90;;;;;;4881022;29;20208;-78
2023/10/27 00:53:40;;;;;;;14.07;13.10;;;10.30;99.90;;;;;;4904936;29;20211;-78
2023/10/27 00:56:07;;;;;;;14.00;13.00;;;10.30;99.90;;;;;;4880189;29;20219;-78
2023/10/27 00:58:35;;;;;;;13.60;12.80;;;10.30;99.90;;;;;;4903355;29;20205;-78
2023/10/27 01:01:03;;;;;;;13.50;12.60;;;10.30;99.90;;;;;;4885977;29;20232;-79
2023/10/27 01:03:30;;;;;;;14.03;13.07;;;10.30;99.90;;;;;;4897064;29;20197;-78
2023/10/27 01:05:57;;;;;;;14.70;13.50;;;10.30;99.90;;;;;;4891324;29;20260;-78
2023/10/27 01:08:25;;;;;;;15.97;14.53;;;10.30;99.90;;;;;;4889715;29;20220;-79
2023/10/27 01:10:52;;;;;;;15.60;14.50;;;10.20;99.90;;;;;;4888698;29;20246;-78
2023/10/27 01:13:19;;;;;;;15.90;14.70;;;10.20;99.90;;;;;;4903985;29;20257;-78
2023/10/27 01:15:46;;;;;;;15.87;14.57;;;10.20;99.90;;;;;;4907291;29;20216;-78
2023/10/27 01:18:13;;;;;;;16.67;15.33;;;10.20;99.90;;;;;;4905713;29;20202;-78
2023/10/27 01:20:39;;;;;;;16.63;15.37;;;10.20;99.90;;;;;;4885577;29;20620;-78
2023/10/27 01:23:08;;;;;;;16.33;15.13;;;10.20;99.90;;;;;;4892490;29;20208;-78
2023/10/27 01:25:35;;;;;;;15.87;14.83;;;10.20;99.90;;;;;;4896363;29;20216;-78
2023/10/27 01:28:02;;;;;;;15.63;14.67;;;10.20;99.90;;;;;;4904436;29;20235;-78
2023/10/27 01:30:29;;;;;;;15.50;14.40;;;10.20;99.90;;;;;;4902910;29;20255;-79
2023/10/27 01:32:56;;;;;;;15.80;14.60;;;10.20;99.90;;;;;;4904709;29;20205;-78
2023/10/27 01:35:23;;;;;;;14.60;13.63;;;10.20;99.90;;;;;;4889759;29;20206;-78
2023/10/27 01:37:49;;;;;;;14.90;13.90;;;10.20;99.90;;;;;;4908589;29;20204;-78
2023/10/27 01:40:19;;;;;;;14.50;13.60;;;10.20;99.90;;;;;;4908401;29;20228;-78
2023/10/27 01:42:46;;;;;;;14.40;13.50;;;10.20;99.90;;;;;;4885171;29;20205;-79
2023/10/27 01:45:13;;;;;;;14.40;13.33;;;10.20;99.90;;;;;;4891205;29;20204;-78
2023/10/27 01:47:40;;;;;;;13.63;12.83;;;10.10;99.90;;;;;;4907382;29;20251;-78
2023/10/27 01:50:08;;;;;;;13.80;13.10;;;10.20;99.90;;;;;;4900105;29;20720;-78
2023/10/27 01:52:35;;;;;;;13.93;13.03;;;10.10;99.90;;;;;;4895303;29;20196;-79
2023/10/27 01:55:02;;;;;;;14.03;13.23;;;10.10;99.90;;;;;;4888000;29;20201;-78
2023/10/27 01:57:30;;;;;;;14.70;13.80;;;10.10;99.90;;;;;;4880261;29;20208;-78
2023/10/27 01:59:57;;;;;;;15.53;14.53;;;10.10;99.90;;;;;;4883121;29;20220;-78
2023/10/27 02:02:24;;;;;;;14.73;13.73;;;10.10;99.90;;;;;;4880553;29;20206;-78
2023/10/27 02:04:50;;;;;;;14.97;14.00;;;10.10;99.90;;;;;;4885586;29;20224;-79
2023/10/27 02:07:23;;;;;;;14.13;13.33;;;10.10;99.90;;;;;;4906294;29;20217;-78
2023/10/27 02:09:50;;;;;;;14.40;13.50;;;10.10;99.90;;;;;;4893429;29;20616;-77
2023/10/27 02:12:17;;;;;;;13.73;12.93;;;10.10;99.90;;;;;;4893739;29;20263;-78
2023/10/27 02:14:45;;;;;;;14.83;13.97;;;10.00;99.90;;;;;;4900376;29;20206;-79
2023/10/27 02:17:12;;;;;;;14.67;13.77;;;10.00;99.90;;;;;;4885822;29;20231;-78
2023/10/27 02:19:39;;;;;;;14.20;13.30;;;10.00;99.90;;;;;;4890942;29;20216;-78
2023/10/27 02:22:06;;;;;;;13.80;13.00;;;10.00;99.90;;;;;;4910496;29;20211;-79
2023/10/27 02:24:33;;;;;;;14.57;13.70;;;10.00;99.90;;;;;;4906211;29;20207;-78
2023/10/27 02:27:00;;;;;;;14.23;13.33;;;10.00;99.90;;;;;;4895437;29;20201;-79
2023/10/27 02:29:27;;;;;;;14.73;13.73;;;10.00;99.90;;;;;;4910631;29;20239;-78
2023/10/27 02:31:57;;;;;;;14.40;13.50;;;10.00;99.90;;;;;;4888923;29;20282;-79
2023/10/27 02:34:24;;;;;;;15.00;14.10;;;10.00;99.90;;;;;;4907442;29;20215;-78
2023/10/27 02:36:51;;;;;;;15.40;14.40;;;10.00;99.90;;;;;;4890737;29;20205;-78
2023/10/27 02:39:18;;;;;;;14.80;13.80;;;10.00;99.90;;;;;;4910731;29;20264;-78
2023/10/27 02:41:48;;;;;;;15.10;14.10;;;10.00;99.90;;;;;;4906229;29;20292;-80
2023/10/27 02:44:15;;;;;;;14.30;13.50;;;10.00;99.90;;;;;;4890528;29;20205;-78
2023/10/27 02:46:42;;;;;;;14.47;13.43;;;10.00;99.90;;;;;;4884856;29;20197;-79
2023/10/27 02:49:10;;;;;;;14.30;13.50;;;10.00;99.90;;;;;;4895050;29;20232;-78
2023/10/27 02:51:40;;;;;;;14.40;13.50;;;10.00;99.90;;;;;;4907090;29;20209;-79
2023/10/27 02:54:07;;;;;;;14.77;13.73;;;10.00;99.90;;;;;;4908171;29;20204;-77
2023/10/27 02:56:34;;;;;;;14.83;13.93;;;10.00;99.90;;;;;;4895079;29;20594;-77
2023/10/27 02:59:01;;;;;;;14.43;13.47;;;10.00;99.90;;;;;;4866487;29;20249;-77
2023/10/27 03:01:28;;;;;;;14.30;13.37;;;10.00;99.90;;;;;;4876076;29;20667;-77
2023/10/27 03:03:55;;;;;;;14.93;14.03;;;10.00;99.90;;;;;;4897066;29;20197;-77
2023/10/27 03:06:23;;;;;;;14.63;13.83;;;10.00;99.90;;;;;;4894916;29;20670;-77
2023/10/27 03:08:50;;;;;;;14.80;13.90;;;10.00;99.90;;;;;;4907161;29;20670;-77
2023/10/27 03:11:17;;;;;;;14.60;13.77;;;10.00;99.90;;;;;;4897336;29;20718;-77
2023/10/27 03:13:44;;;;;;;15.60;14.80;;;10.00;99.90;;;;;;4885192;29;20200;-77
2023/10/27 03:16:11;;;;;;;14.70;13.90;;;10.00;99.90;;;;;;4905473;29;20630;-78
2023/10/27 03:18:37;;;;;;;15.00;14.00;;;10.00;99.90;;;;;;4893544;29;20278;-77
2023/10/27 03:21:05;;;;;;;15.07;14.17;;;10.00;99.90;;;;;;4886210;29;20718;-78
2023/10/27 03:23:33;;;;;;;16.43;15.33;;;10.00;99.90;;;;;;4910276;29;20189;-78
2023/10/27 03:26:00;;;;;;;15.37;14.37;;;10.00;99.90;;;;;;4881020;29;20726;-77
2023/10/27 03:28:27;;;;;;;16.07;14.83;;;10.00;99.90;;;;;;4895257;29;20637;-77
2023/10/27 03:30:54;;;;;;;16.20;15.10;;;10.00;99.90;;;;;;4884935;29;20206;-78
2023/10/27 03:33:21;;;;;;;16.63;15.33;;;9.90;99.90;;;;;;4880297;29;20201;-80
2023/10/27 03:35:48;;;;;;;17.07;15.87;;;9.90;99.90;;;;;;4911444;29;20208;-78
2023/10/27 03:38:16;;;;;;;16.23;15.23;;;10.00;99.90;;;;;;4906772;29;20670;-78
2023/10/27 03:40:44;;;;;;;16.23;15.13;;;10.00;99.90;;;;;;4901747;29;20223;-78
2023/10/27 03:43:11;;;;;;;16.23;15.30;;;10.00;99.90;;;;;;4892445;29;20200;-79
2023/10/27 03:45:40;;;;;;;15.50;14.60;;;10.00;99.90;;;;;;4894360;29;20409;-79
2023/10/27 03:48:08;;;;;;;15.50;14.50;;;10.00;99.90;;;;;;4890731;29;20201;-79
2023/10/27 03:50:36;;;;;;;15.67;14.67;;;10.00;99.90;;;;;;4871101;29;20700;-79
2023/10/27 03:53:03;;;;;;;15.07;14.17;;;10.00;99.90;;;;;;4872503;29;20202;-79
2023/10/27 03:55:30;;;;;;;14.80;13.80;;;10.00;99.90;;;;;;4868704;29;20206;-78
2023/10/27 03:58:13;;;;;;;14.97;14.07;;;9.90;99.90;;;;;;4887478;29;20686;-79
2023/10/27 04:00:39;;;;;;;15.27;14.33;;;9.90;99.90;;;;;;4870859;29;20569;-78
2023/10/27 04:03:06;;;;;;;14.70;13.80;;;9.80;99.90;;;;;;4894843;29;20438;-79
2023/10/27 04:05:33;;;;;;;14.97;14.07;;;9.90;99.90;;;;;;4888721;29;20232;-79
2023/10/27 04:08:00;;;;;;;14.90;14.10;;;9.90;99.90;;;;;;4906622;29;20208;-79
2023/10/27 04:10:28;;;;;;;15.13;14.33;;;9.80;99.90;;;;;;4893176;29;20773;-79
2023/10/27 04:12:56;;;;;;;15.57;14.67;;;9.80;99.90;;;;;;4905438;29;20351;-80
2023/10/27 04:15:24;;;;;;;15.47;14.57;;;9.80;99.90;;;;;;4911351;29;20211;-79
2023/10/27 04:17:51;;;;;;;14.50;13.70;;;9.80;99.90;;;;;;4889033;29;20265;-83
2023/10/27 04:20:18;;;;;;;15.00;14.20;;;9.80;99.90;;;;;;4871996;29;20262;-79
2023/10/27 04:22:44;;;;;;;15.60;14.70;;;9.80;99.90;;;;;;4872094;29;20667;-80
2023/10/27 04:25:12;;;;;;;14.63;13.83;;;9.80;99.90;;;;;;4868808;29;20977;-80
2023/10/27 04:27:39;;;;;;;14.63;13.83;;;9.80;99.90;;;;;;4885074;29;20201;-80
2023/10/27 04:30:08;;;;;;;14.77;13.97;;;9.80;99.90;;;;;;4872466;29;21088;-79
2023/10/27 04:32:36;;;;;;;15.17;14.37;;;9.80;99.90;;;;;;4872702;29;20240;-80
2023/10/27 04:35:04;;;;;;;15.17;14.37;;;9.80;99.90;;;;;;4871836;29;20216;-80
2023/10/27 04:37:32;;;;;;;14.83;14.03;;;9.80;99.90;;;;;;4873615;29;20216;-80
2023/10/27 04:39:58;;;;;;;15.00;14.20;;;9.80;99.90;;;;;;4871835;29;20613;-80
2023/10/27 04:42:25;;;;;;;15.23;14.43;;;9.90;99.90;;;;;;4887397;29;20212;-79
2023/10/27 04:44:52;;;;;;;15.00;14.20;;;9.90;99.90;;;;;;4872126;29;20293;-80
2023/10/27 04:47:20;;;;;;;15.10;14.30;;;9.90;99.90;;;;;;4872359;29;20201;-80
2023/10/27 04:49:48;;;;;;;14.83;14.03;;;9.90;99.90;;;;;;4872470;29;20243;-80
2023/10/27 04:52:15;;;;;;;14.60;13.90;;;9.90;99.90;;;;;;4872767;29;20229;-80
2023/10/27 04:54:41;;;;;;;15.53;14.73;;;9.90;99.90;;;;;;4872891;29;20268;-80
2023/10/27 04:57:08;;;;;;;16.10;15.20;;;10.00;99.90;;;;;;4884953;29;20204;-80
2023/10/27 04:59:35;;;;;;;15.50;14.70;;;10.00;99.90;;;;;;4873236;29;20252;-80
2023/10/27 05:02:03;;;;;;;16.10;15.20;;;10.00;99.90;;;;;;4871867;29;20594;-81
2023/10/27 05:04:30;;;;;;;15.73;14.93;;;10.00;99.90;;;;;;4871429;29;20265;-77
2023/10/27 05:06:58;;;;;;;15.67;14.87;;;10.00;99.90;;;;;;4873296;29;20205;-79
2023/10/27 05:09:25;;;;;;;16.17;15.27;;;10.10;99.90;;;;;;4873445;29;20257;-79
2023/10/27 05:11:53;;;;;;;17.00;16.00;;;10.10;99.90;;;;;;4868336;29;20276;-79
2023/10/27 05:14:20;;;;;;;16.53;15.63;;;10.10;99.90;;;;;;4871228;29;21104;-79
2023/10/27 05:16:48;;;;;;;16.60;15.70;;;10.10;99.90;;;;;;4870349;29;20209;-79
2023/10/27 05:19:18;;;;;;;17.80;16.80;;;10.10;99.90;;;;;;4885186;29;20230;-80
2023/10/27 05:21:51;;;;;;;17.50;16.60;;;10.10;99.90;;;;;;4875456;29;20206;-80
2023/10/27 05:24:19;;;;;;;17.07;16.17;;;10.10;99.90;;;;;;4877768;29;20209;-80
2023/10/27 05:26:46;;;;;;;13.10;12.23;;;10.20;99.90;;;;;;4888056;29;20210;-80
2023/10/27 05:29:12;;;;;;;5.57;5.17;;;10.20;99.90;;;;;;4875889;29;20230;-79
2023/10/27 05:31:40;;;;;;;9.60;8.90;;;10.20;99.90;;;;;;4875213;29;20567;-80
2023/10/27 05:34:06;;;;;;;7.13;6.60;;;10.20;99.90;;;;;;4876692;29;20209;-80
2023/10/27 05:36:35;;;;;;;7.30;6.80;;;10.10;99.90;;;;;;4889757;29;20220;-80
2023/10/27 05:39:02;;;;;;;6.67;6.20;;;10.10;99.90;;;;;;4874748;29;20229;-81
2023/10/27 05:41:30;;;;;;;5.30;4.90;;;10.00;99.90;;;;;;4890315;29;20225;-80
2023/10/27 05:43:57;;;;;;;6.93;6.43;;;10.00;99.90;;;;;;4877199;29;20225;-81
2023/10/27 05:46:24;;;;;;;6.67;6.17;;;10.00;99.90;;;;;;4874478;29;20217;-80
2023/10/27 05:48:50;;;;;;;10.13;9.47;;;10.00;99.90;;;;;;4876757;29;20277;-80
2023/10/27 05:51:17;;;;;;;6.80;5.93;;;10.00;99.90;;;;;;4874315;29;20240;-81
2023/10/27 05:53:47;;;;;;;8.17;7.57;;;10.00;99.90;;;;;;4874180;29;20253;-79
2023/10/27 05:57:02;;;;;;;6.63;6.03;;;10.10;99.90;;;;;;4888583;29;20225;-80
2023/10/27 05:59:29;;;;;;;5.80;5.40;;;10.00;99.90;;;;;;4875627;29;20469;-80
2023/10/27 06:01:56;;;;;;;9.10;8.60;;;10.00;99.90;;;;;;4873359;29;20209;-82
2023/10/27 06:04:24;;;;;;;4.87;4.50;;;10.00;99.90;;;;;;4872872;29;20265;-83
2023/10/27 06:10:25;;;;;;;6.87;6.37;;;9.90;99.90;;;;;;4872194;29;20247;-82
2023/10/27 06:16:58;;;;;;;7.73;7.23;;;9.90;99.90;;;;;;4879737;29;20220;-82
2023/10/27 06:19:41;;;;;;;6.80;6.30;;;9.90;99.90;;;;;;4871435;29;20232;-82
2023/10/27 06:22:09;;;;;;;5.27;4.97;;;9.90;99.90;;;;;;4876706;29;20207;-81
2023/10/27 06:24:38;;;;;;;5.90;5.50;;;10.00;99.90;;;;;;4890022;29;20292;-81
2023/10/27 06:27:18;;;;;;;5.60;5.10;;;10.00;99.90;;;;;;4876675;29;20205;-81
2023/10/27 06:33:23;;;;;;;8.93;8.43;;;10.00;99.90;;;;;;4858065;29;20216;-76
2023/10/27 06:42:48;;;;;;;5.07;4.67;;;10.20;99.90;;;;;;4820943;29;20228;-84
2023/10/27 06:48:25;;;;;;;4.80;4.40;;;10.20;99.90;;;;;;4846376;29;20205;-83
2023/10/27 06:50:52;;;;;;;4.87;4.50;;;10.30;99.90;;;;;;4860117;29;20320;-83
2023/10/27 06:53:24;;;;;;;4.43;4.13;;;10.30;99.90;;;;;;4859846;29;21712;-82
2023/10/27 06:55:51;;;;;;;5.67;5.27;;;10.30;99.90;;;;;;4857636;29;21228;-82
2023/10/27 06:58:18;;;;;;;6.37;6.07;;;10.40;99.90;;;;;;4858656;29;20226;-80
2023/10/27 07:00:47;;;;;;;4.33;4.03;;;10.50;99.90;;;;;;4877233;29;20220;-80
2023/10/27 07:03:13;;;;;;;4.70;4.40;;;10.50;99.90;;;;;;4862625;29;20633;-79
2023/10/27 07:05:40;;;;;;;4.40;4.20;;;10.60;99.90;;;;;;4875653;29;20201;-79
2023/10/27 07:14:52;;;;;;;4.63;4.33;;;10.70;99.90;;;;;;4894648;29;20215;-82
2023/10/27 07:17:23;;;;;;;4.93;4.63;;;10.80;99.90;;;;;;4895474;29;20216;-80
2023/10/27 07:19:50;;;;;;;5.70;5.40;;;10.80;99.90;;;;;;4891546;29;20224;-77
2023/10/27 07:22:19;;;;;;;3.70;3.50;;;10.80;99.90;;;;;;4873759;29;20296;-77
2023/10/27 07:24:46;;;;;;;6.03;5.73;;;10.90;99.90;;;;;;4875427;29;20243;-77
2023/10/27 07:27:13;;;;;;;3.70;3.50;;;10.90;99.90;;;;;;4861118;29;20220;-77
2023/10/27 07:29:40;;;;;;;5.20;4.90;;;10.90;99.90;;;;;;4891838;29;20724;-77
2023/10/27 07:32:07;;;;;;;4.53;4.23;;;10.90;99.90;;;;;;4863125;29;20647;-77
2023/10/27 07:34:35;;;;;;;4.20;3.90;;;10.90;99.90;;;;;;4862609;29;20327;-79
2023/10/27 07:37:04;;;;;;;3.70;3.50;;;10.90;99.90;;;;;;4875694;29;20209;-77
2023/10/27 07:39:31;;;;;;;3.77;3.57;;;10.90;99.90;;;;;;4892548;29;20337;-77
2023/10/27 07:41:58;;;;;;;3.20;3.10;;;10.90;99.90;;;;;;4893253;29;20200;-78
2023/10/27 07:44:32;;;;;;;9.60;9.10;;;10.90;99.90;;;;;;4876934;29;20208;-80
2023/10/27 07:46:59;;;;;;;8.40;7.90;;;10.90;99.90;;;;;;4875280;29;20205;-79
2023/10/27 07:49:26;;;;;;;5.40;5.10;;;10.90;99.90;;;;;;4893970;29;20230;-76
2023/10/27 07:51:54;;;;;;;4.57;4.37;;;10.90;99.90;;;;;;4890288;29;20224;-77
2023/10/27 07:54:21;;;;;;;8.53;8.03;;;10.90;99.90;;;;;;4877875;29;20213;-78
2023/10/27 07:56:47;;;;;;;4.47;4.17;;;10.90;99.90;;;;;;4861974;29;20636;-79
2023/10/27 07:59:15;;;;;;;6.37;5.97;;;11.00;99.90;;;;;;4876273;29;20254;-78
2023/10/27 08:01:42;;;;;;;10.73;10.13;;;11.00;99.90;;;;;;4860760;29;20210;-77
2023/10/27 08:04:08;;;;;;;6.70;6.30;;;11.10;99.90;;;;;;4892184;29;20570;-78
2023/10/27 08:06:35;;;;;;;15.93;15.03;;;11.10;99.90;;;;;;4891599;29;20205;-77
2023/10/27 08:09:03;;;;;;;8.77;8.23;;;11.20;99.90;;;;;;4891549;29;20239;-77
2023/10/27 08:11:30;;;;;;;8.90;8.40;;;11.20;99.90;;;;;;4891482;29;20619;-77
2023/10/27 08:13:57;;;;;;;5.87;5.47;;;11.40;99.90;;;;;;4891321;29;20690;-78
2023/10/27 08:16:24;;;;;;;11.67;11.07;;;11.50;99.90;;;;;;4875727;29;20222;-77
2023/10/27 08:18:51;;;;;;;6.83;6.43;;;11.60;99.90;;;;;;4873982;29;20236;-76
2023/10/27 08:21:17;;;;;;;4.07;3.77;;;11.70;99.90;;;;;;4890199;29;20199;-77
2023/10/27 08:23:50;;;;;;;3.60;3.40;;;11.70;99.90;;;;;;4891124;29;20199;-81
2023/10/27 08:26:18;;;;;;;7.53;7.13;;;11.80;99.90;;;;;;4890241;29;20199;-78
2023/10/27 08:28:48;;;;;;;6.00;5.53;;;11.90;99.90;;;;;;4892645;29;20309;-84
2023/10/27 08:31:16;;;;;;;9.60;9.00;;;12.00;99.90;;;;;;4876259;29;20229;-80
2023/10/27 08:34:04;;;;;;;;;;;;;;;;;;;;;
2023/10/27 08:36:40;;;;;;;5.07;4.77;;;12.10;99.90;;;;;;4871175;29;20916;-81
2023/10/27 08:39:08;;;;;;;6.87;6.50;;;12.10;99.90;;;;;;4871553;29;20770;-82
2023/10/27 08:41:36;;;;;;;9.03;8.53;;;12.10;99.90;;;;;;4871797;29;20236;-81
2023/10/27 08:44:04;;;;;;;5.30;5.00;;;12.10;99.90;;;;;;4890506;29;20290;-81
2023/10/27 08:46:33;;;;;;;6.00;5.70;;;12.20;99.90;;;;;;4872653;29;20292;-81
2023/10/27 08:49:03;;;;;;;3.80;3.60;;;12.20;99.90;;;;;;4888423;29;20226;-81
2023/10/27 08:51:30;;;;;;;5.23;4.93;;;12.30;99.90;;;;;;4889348;29;20224;-82
2023/10/27 08:54:06;;;;;;;7.57;7.17;;;12.40;99.90;;;;;;4874127;29;20214;-81
2023/10/27 08:56:40;;;;;;;4.73;4.50;;;12.50;99.90;;;;;;4872245;29;20696;-82
2023/10/27 08:59:10;;;;;;;3.63;3.33;;;12.70;99.90;;;;;;4887555;29;20312;-82
2023/10/27 09:06:13;;;;;;;3.30;3.00;;;12.80;99.90;;;;;;4846902;29;20216;-81
2023/10/27 09:08:48;;;;;;;4.03;3.83;;;12.70;99.90;;;;;;4825194;29;20221;-81
2023/10/27 09:14:59;;;;;;;4.33;3.93;;;12.70;99.90;;;;;;4807427;29;20206;-82
2023/10/27 09:17:52;;;;;;;4.23;4.00;;;12.70;99.90;;;;;;4890229;29;20750;-84
2023/10/27 09:20:29;;;;;;;3.90;3.60;;;12.60;99.90;;;;;;4888438;29;20250;-83
2023/10/27 09:23:13;;;;;;;4.33;4.00;;;12.60;99.90;;;;;;4870766;29;20245;-83
2023/10/27 09:25:47;;;;;;;5.77;5.47;;;12.50;99.90;;;;;;4870054;29;20211;-82
2023/10/27 09:28:14;;;;;;;11.70;11.00;;;12.40;99.90;;;;;;4857969;29;20689;-82
2023/10/27 09:30:44;;;;;;;9.17;8.57;;;;;;;;;;4857791;29;20255;-81
2023/10/27 09:33:16;;;;;;;13.60;12.90;;;;;;;;;;4888487;29;20749;-82
2023/10/27 09:35:51;;;;;;;13.50;12.80;;;;;;;;;;4875152;29;20796;-80
2023/10/27 09:38:28;;;;;;;13.07;12.27;;;;;;;;;;4885614;29;20292;-83
2023/10/27 09:40:58;;;;;;;13.60;12.70;;;;;;;;;;4869512;29;20206;-84
2023/10/27 09:43:45;;;;;;;13.70;12.80;;;;;;;;;;4873122;29;20207;-84
2023/10/27 09:46:26;;;;;;;13.20;12.17;;;;;;;;;;4872229;29;20225;-84
2023/10/27 09:49:11;;;;;;;12.90;12.20;;;;;;;;;;4869115;29;20322;-83
2023/10/27 09:51:51;;;;;;;13.13;12.30;;;;;;;;;;4875731;29;20209;-85
2023/10/27 09:54:38;;;;;;;13.77;12.77;;;;;;;;;;4858850;29;20587;-83
2023/10/27 09:57:07;;;;;;;13.17;12.27;;;;;;;;;;4873140;29;20659;-83
2023/10/27 09:59:35;;;;;;;13.10;12.30;;;;;;;;;;4871297;29;20222;-83
2023/10/27 10:02:05;;;;;;;12.90;12.17;;;;;;;;;;4870578;29;20205;-83
2023/10/27 10:04:54;;;;;;;13.60;12.70;;;;;;;;;;4869508;29;20258;-83
2023/10/27 10:07:29;;;;;;;13.17;12.27;;;;;;;;;;4876278;29;20212;-83
2023/10/27 10:09:58;;;;;;;12.50;11.73;;;;;;;;;;4874468;29;20227;-83
2023/10/27 10:12:26;;;;;;;8.03;7.43;;;;;;;;;;4873459;29;20233;-83
2023/10/27 10:18:59;;;;;;;11.03;10.23;;;;;;;;;;4775936;29;21003;-83
2023/10/27 10:21:35;;;;;;;3.70;3.40;;;;;;;;;;4801398;29;20645;-82
2023/10/27 10:24:10;;;;;;;4.17;3.87;;;;;;;;;;4803333;29;20242;-84
2023/10/27 10:26:56;;;;;;;5.73;5.33;;;;;;;;;;4847576;29;20231;-81
2023/10/27 10:29:32;;;;;;;11.60;10.90;;;;;;;;;;4874348;29;20228;-82
2023/10/27 10:32:14;;;;;;;12.60;11.90;;;;;;;;;;4875493;29;20255;-83
2023/10/27 10:35:02;;;;;;;12.13;11.33;;;;;;;;;;4871116;29;20292;-83
2023/10/27 10:37:51;;;;;;;5.80;5.00;;;;;;;;;;4876308;29;20228;-82
2023/10/27 10:43:37;;;;;;;4.43;4.03;;;;;;;;;;4857394;29;20408;-82
2023/10/27 10:46:36;;;;;;;;;;;;;;;;;;;;;
2023/10/27 10:49:08;;;;;;;13.43;12.73;;;;;;;;;;4863980;29;20307;-83
2023/10/27 10:51:37;;;;;;;10.67;9.90;;;;;;;;;;4891286;29;20212;-82
2023/10/27 10:54:06;;;;;;;5.67;3.10;;;;;;;;;;4873735;29;20219;-81
2023/10/27 10:56:34;;;;;;;4.30;3.10;;;;;;;;;;4862603;29;20209;-83
2023/10/27 10:59:03;;;;;;;4.50;3.77;;;;;;;;;;4877437;29;20300;-83
2023/10/27 11:01:31;;;;;;;4.73;3.30;;;;;;;;;;4887092;29;20209;-82
2023/10/27 11:03:59;;;;;;;3.63;2.97;;;;;;;;;;4890278;29;20734;-81
2023/10/27 11:06:27;;;;;;;7.77;7.33;;;;;;;;;;4878231;29;20335;-82
2023/10/27 11:08:55;;;;;;;9.60;9.00;;;;;;;;;;4877954;29;20773;-81
2023/10/27 11:11:22;;;;;;;11.83;11.13;;;;;;;;;;4877074;29;20322;-78
2023/10/27 11:13:52;;;;;;;13.00;12.30;;;;;;;;;;4890773;29;20214;-77
2023/10/27 11:16:21;;;;;;;13.73;12.50;;;;;;;;;;4875125;29;20257;-76
2023/10/27 11:18:49;;;;;;;5.53;3.70;;;;;;;;;;4890353;29;20253;-77
2023/10/27 11:21:17;;;;;;;5.67;3.00;;;;;;;;;;4861986;29;20245;-77
2023/10/27 11:23:44;;;;;;;4.70;2.80;;;;;;;;;;4892937;29;20200;-78
2023/10/27 11:26:11;;;;;;;12.60;11.70;;;;;;;;;;4892328;29;20296;-78
2023/10/27 11:28:39;;;;;;;11.10;10.50;;;;;;;;;;4892080;29;20209;-77
2023/10/27 11:31:08;;;;;;;11.43;10.77;;;;;;;;;;4891707;29;20202;-77
2023/10/27 11:33:55;;;;;;;11.13;10.53;;;;;;;;;;4875638;29;20218;-78
2023/10/27 11:36:23;;;;;;;11.80;11.10;;;;;;;;;;4875708;29;20204;-78
2023/10/27 11:38:50;;;;;;;11.90;11.00;;;;;;;;;;4875368;29;20248;-78
2023/10/27 11:41:17;;;;;;;11.53;10.83;;;;;;;;;;4860864;29;20208;-78
2023/10/27 11:43:45;;;;;;;11.77;10.90;;;;;;;;;;4891652;29;20288;-77
2023/10/27 11:46:14;;;;;;;11.50;10.90;;;;;;;;;;4891630;29;20220;-78
2023/10/27 11:48:42;;;;;;;11.27;10.67;;;;;;;;;;4892072;29;20208;-77
2023/10/27 11:51:10;;;;;;;9.43;8.80;;;;;;;;;;4890873;29;20208;-77
2023/10/27 11:53:41;;;;;;;12.23;11.50;;;;;;;;;;4874740;29;20682;-78
2023/10/27 11:56:08;;;;;;;9.80;9.20;;;;;;;;;;4891816;29;20243;-77
2023/10/27 11:58:36;;;;;;;2.70;2.50;;;;;;;;;;4892613;29;20233;-77
2023/10/27 12:01:03;;;;;;;2.60;2.50;;;;;;;;;;4892079;29;20257;-78
2023/10/27 12:03:31;;;;;;;3.47;2.67;;;;;;;;;;4875403;29;20210;-77
2023/10/27 12:05:59;;;;;;;2.67;2.47;;;;;;;;;;4892234;29;20209;-77
2023/10/27 12:08:26;;;;;;;2.80;2.60;;;;;;;;;;4891085;29;20211;-77
2023/10/27 12:10:53;;;;;;;4.83;4.43;;;;;;;;;;4891645;29;20305;-77
2023/10/27 12:13:21;;;;;;;7.90;7.20;;;;;;;;;;4874245;29;20225;-77
2023/10/27 12:15:48;;;;;;;6.90;6.43;;;;;;;;;;4891570;29;20209;-77
2023/10/27 12:18:16;;;;;;;8.57;8.00;;;;;;;;;;4874236;29;20219;-77
2023/10/27 12:20:45;;;;;;;4.17;3.77;;;;;;;;;;4891623;29;20785;-77
2023/10/27 12:23:12;;;;;;;11.53;10.83;;;;;;;;;;4876431;29;20283;-77
2023/10/27 12:25:40;;;;;;;11.10;10.50;;;;;;;;;;4891579;29;20202;-77
2023/10/27 12:28:08;;;;;;;10.80;10.20;;;;;;;;;;4890573;29;20202;-78
2023/10/27 12:30:36;;;;;;;10.90;10.30;;;;;;;;;;4860784;29;20239;-77
2023/10/27 12:33:04;;;;;;;10.53;9.93;;;;;;;;;;4891995;29;20228;-78
2023/10/27 12:35:32;;;;;;;11.40;10.80;;;;;;;;;;4891699;29;20246;-77
2023/10/27 12:38:00;;;;;;;11.20;10.60;;;;;;;;;;4875872;29;20218;-77
2023/10/27 12:40:27;;;;;;;10.97;10.37;;;;;;;;;;4890946;29;20221;-78
2023/10/27 12:42:55;;;;;;;11.30;10.70;;;;;;;;;;4875199;29;20670;-78
2023/10/27 12:45:23;;;;;;;11.43;10.77;;;;;;;;;;4874121;29;20813;-76
2023/10/27 12:47:51;;;;;;;11.93;11.00;;;;;;;;;;4874667;29;20203;-77
2023/10/27 12:50:18;;;;;;;11.50;10.90;;;;;;;;;;4891064;29;20233;-77
2023/10/27 12:52:45;;;;;;;11.43;10.73;;;;;;;;;;4890816;29;20248;-78
2023/10/27 12:55:15;;;;;;;11.90;11.27;;;;;;;;;;4891252;29;20621;-78
2023/10/27 12:57:42;;;;;;;11.53;10.73;;;;;;;;;;4891794;29;20193;-78
2023/10/27 13:00:16;;;;;;;11.17;10.57;;;;;;;;;;4891270;29;20582;-78
2023/10/27 13:02:44;;;;;;;11.30;10.70;;;;;;;;;;4891584;29;20202;-78
2023/10/27 13:05:12;;;;;;;10.80;10.20;;;;;;;;;;4891201;29;20235;-78
2023/10/27 13:07:40;;;;;;;11.20;10.60;;;;;;;;;;4874616;29;20557;-78
2023/10/27 13:10:08;;;;;;;11.10;10.50;;;;;;;;;;4875629;29;20315;-78
2023/10/27 13:12:37;;;;;;;11.60;10.90;;;;;;;;;;4873880;29;20233;-77
2023/10/27 13:15:05;;;;;;;11.23;10.63;;;;;;;;;;4874383;29;20783;-78
2023/10/27 13:17:34;;;;;;;11.13;10.53;;;;;;;;;;4875677;29;20684;-78
2023/10/27 13:20:02;;;;;;;11.23;10.50;;;;;;;;;;4889852;29;20921;-77
2023/10/27 13:22:29;;;;;;;11.10;10.50;;;;;;;;;;4890162;29;20205;-77
2023/10/27 13:24:56;;;;;;;10.70;10.10;;;;;;;;;;4891096;29;20206;-77
2023/10/27 13:27:24;;;;;;;11.13;10.53;;;;;;;;;;4889443;29;20824;-77
2023/10/27 13:29:57;;;;;;;11.17;10.57;;;;;;;;;;4890255;29;20527;-78
2023/10/27 13:32:24;;;;;;;11.20;10.50;;;;;;;;;;4889104;29;20281;-78
2023/10/27 13:34:51;;;;;;;11.43;10.83;;;;;;;;;;4889478;29;20211;-77
2023/10/27 13:37:19;;;;;;;11.30;10.70;;;;;;;;;;4889691;29;20211;-77
2023/10/27 13:39:46;;;;;;;10.83;10.27;;;;;;;;;;4873339;29;20260;-78
2023/10/27 13:42:14;;;;;;;11.20;10.60;;;;;;;;;;4889567;29;20203;-78
2023/10/27 13:44:41;;;;;;;11.10;10.50;;;;;;;;;;4889663;29;20668;-77
2023/10/27 13:47:10;;;;;;;10.80;10.20;;;;;;;;;;4889415;29;20263;-78
2023/10/27 13:49:38;;;;;;;11.00;10.30;;;;;;;;;;4890382;29;20314;-77
2023/10/27 13:52:05;;;;;;;10.70;10.10;;;;;;;;;;4889259;29;20710;-77
2023/10/27 13:54:33;;;;;;;10.70;10.10;;;;;;;;;;4889561;29;20225;-79
2023/10/27 13:57:00;;;;;;;10.50;9.90;;;;;;;;;;4888039;29;20225;-80
2023/10/27 13:59:30;;;;;;;10.70;10.10;;;;;;;;;;4890745;29;20223;-82
2023/10/27 14:02:05;;;;;;;10.40;9.80;;;;;;;;;;4876232;29;20205;-81
2023/10/27 14:04:35;;;;;;;10.70;10.10;;;;;;;;;;4874243;29;20216;-80